Pelham, New Hampshire
Current Conditions -  °F | °C
As of 12:54 PM on Monday 24 Nov 2014 (Local Time) from KLWM Reporting Station
Overcast Overcast  
Wind Chill: 18°   Ceiling: 900
Heat Index: 18°   Visibility: 10mi
Dew Point: 17°   Wind: 10mph
Humidity: 93%   Direction: 200°SSW
Pressure: 29.63"   Gusts: 17mph
Location:  42.73°N, 71.32°W
Report Text: KLWM 241754Z 20009G15KT 10SM BKN009 OVC014 18/17 A2963 RMK AO2 RAE08B22E37 SLP034 P0000 60016 T01780167 10178 20117 56034
Loading
Personal Weather Stations






























Interactive Weather Map New forecast layout! Learn more

10-Day Weather Forecast

Advertisements
Track Severe Weather on mobile